Time;durP1;ratioP1;P1;durP2;ratioP2;P2;SDS_P1;SDS_P2;PMS_P1;PMS_P2;Temp;Humidity;BMP_temperature;BMP_pressure;BME280_temperature;BME280_humidity;BME280_pressure;Samples;Min_cycle;Max_cycle;Signal;HPM_P1;HPM_P2
2021/08/19 00:01:12;;;;;;;20.65;15.95;;;;;;;20.07;86.33;99935.91;1766111;81;21347;-54
2021/08/19 00:04:19;;;;;;;20.02;15.95;;;;;;;20.03;86.44;99942.49;1776349;80;21209;-55
2021/08/19 00:07:25;;;;;;;18.40;16.10;;;;;;;20.01;86.69;99943.28;1775620;79;21217;-54
2021/08/19 00:10:31;;;;;;;20.50;16.67;;;;;;;20.00;86.92;99934.66;1770502;79;21229;-53
2021/08/19 00:13:38;;;;;;;17.90;15.58;;;;;;;20.00;87.10;99937.97;1780441;79;21217;-54
2021/08/19 00:16:43;;;;;;;19.15;16.17;;;;;;;19.99;87.36;99943.23;1777155;79;21422;-53
2021/08/19 00:19:51;;;;;;;22.32;16.75;;;;;;;19.98;87.56;99936.01;1765949;80;21221;-53
2021/08/19 00:22:56;;;;;;;19.48;15.03;;;;;;;19.98;87.71;99941.00;1799106;79;21209;-53
2021/08/19 00:26:02;;;;;;;20.65;14.98;;;;;;;19.97;87.93;99943.48;1766374;80;21202;-54
2021/08/19 00:29:07;;;;;;;18.00;15.53;;;;;;;19.95;88.12;99942.03;1766282;81;21237;-54
2021/08/19 00:32:13;;;;;;;18.92;15.88;;;;;;;19.93;88.31;99937.29;1766376;81;21337;-52
2021/08/19 00:35:18;;;;;;;20.32;15.90;;;;;;;19.92;88.42;99938.36;1766462;81;21344;-53
2021/08/19 00:38:25;;;;;;;19.92;16.32;;;;;;;19.90;88.39;99946.95;1767027;81;21932;-52
2021/08/19 00:41:31;;;;;;;21.40;16.02;;;;;;;19.88;88.41;99942.73;1766133;80;21194;-52
2021/08/19 00:44:38;;;;;;;18.10;15.53;;;;;;;19.84;88.50;99934.58;1766863;80;21603;-53
2021/08/19 00:47:45;;;;;;;19.73;15.38;;;;;;;19.81;88.66;99926.74;1766615;81;21404;-53
2021/08/19 00:50:51;;;;;;;21.02;16.25;;;;;;;19.75;88.75;99918.87;1766289;81;21194;-56
2021/08/19 00:53:59;;;;;;;17.77;15.75;;;;;;;19.73;89.01;99924.35;1766391;81;21214;-56
2021/08/19 00:57:07;;;;;;;17.42;14.60;;;;;;;19.70;89.20;99919.30;1766468;81;21340;-55
2021/08/19 01:00:14;;;;;;;19.52;15.18;;;;;;;19.65;89.44;99917.25;1766375;81;21344;-55
2021/08/19 01:03:19;;;;;;;18.90;15.60;;;;;;;19.62;89.70;99919.14;1770120;79;21367;-56
2021/08/19 01:06:25;;;;;;;21.02;15.63;;;;;;;19.58;90.03;99918.49;1766618;80;21327;-54
2021/08/19 01:09:31;;;;;;;22.00;15.75;;;;;;;19.57;90.26;99925.97;1768948;79;21261;-53
2021/08/19 01:12:36;;;;;;;21.45;16.27;;;;;;;19.57;90.34;99923.76;1766627;80;21170;-55
2021/08/19 01:15:43;;;;;;;18.55;15.75;;;;;;;19.54;90.58;99921.45;1768940;81;21170;-54
2021/08/19 01:18:52;;;;;;;20.17;16.40;;;;;;;19.52;90.74;99926.42;1771211;79;21861;-55
2021/08/19 01:22:00;;;;;;;19.00;14.75;;;;;;;19.51;90.89;99929.73;1766460;80;21758;-54
2021/08/19 01:25:06;;;;;;;18.30;15.68;;;;;;;19.51;91.02;99926.10;1766933;79;21198;-53
2021/08/19 01:28:13;;;;;;;17.45;14.80;;;;;;;19.50;91.09;99925.81;1766582;80;21185;-53
2021/08/19 01:31:29;;;;;;;21.45;15.55;;;;;;;19.50;91.16;99923.89;1774844;79;21348;-54
2021/08/19 01:34:37;;;;;;;19.50;16.20;;;;;;;19.49;91.18;99922.19;1766841;79;21383;-56
2021/08/19 01:37:42;;;;;;;17.65;15.30;;;;;;;19.48;91.17;99923.81;1788770;79;21261;-53
2021/08/19 01:40:49;;;;;;;17.27;15.45;;;;;;;19.43;91.20;99923.16;1767254;79;21182;-56
2021/08/19 01:43:59;;;;;;;20.50;15.98;;;;;;;19.42;91.35;99919.25;1770890;79;21702;-55
2021/08/19 01:47:12;;;;;;;17.50;14.93;;;;;;;19.43;91.42;99919.53;1766429;81;21406;-55
2021/08/19 01:50:19;;;;;;;17.80;14.70;;;;;;;19.43;91.39;99920.92;1766870;80;21758;-54
2021/08/19 01:53:25;;;;;;;21.55;15.60;;;;;;;19.42;91.39;99920.63;1769903;79;21339;-54
2021/08/19 01:56:34;;;;;;;20.50;16.27;;;;;;;19.38;91.29;99920.27;1757198;81;21348;-55
2021/08/19 01:59:39;;;;;;;16.95;14.68;;;;;;;19.37;91.36;99931.63;1766820;80;21222;-55
2021/08/19 02:02:45;;;;;;;18.25;15.93;;;;;;;19.36;91.42;99935.50;1768813;79;22007;-55
2021/08/19 02:05:53;;;;;;;19.40;15.40;;;;;;;19.37;91.59;99936.64;1770356;79;21340;-56
2021/08/19 02:09:00;;;;;;;18.40;14.93;;;;;;;19.37;91.50;99936.64;1767948;79;21289;-56
2021/08/19 02:12:07;;;;;;;20.68;16.05;;;;;;;19.36;91.40;99939.09;1767686;79;21230;-55
2021/08/19 02:15:13;;;;;;;17.70;15.80;;;;;;;19.34;91.37;99935.17;1768451;79;21359;-53
2021/08/19 02:18:18;;;;;;;19.50;14.95;;;;;;;19.30;91.32;99935.38;1767504;80;21403;-53
2021/08/19 02:21:24;;;;;;;17.32;15.48;;;;;;;19.27;91.34;99940.53;1772273;79;21332;-54
2021/08/19 02:24:32;;;;;;;20.65;16.02;;;;;;;19.25;91.45;99952.41;1769023;79;21198;-55
2021/08/19 02:27:38;;;;;;;20.68;16.12;;;;;;;19.24;91.51;99949.34;1769979;79;21877;-53
2021/08/19 02:30:43;;;;;;;18.80;16.75;;;;;;;19.24;91.59;99964.08;1767317;79;21261;-53
2021/08/19 02:33:51;;;;;;;23.92;16.52;;;;;;;19.23;91.47;99958.20;1775303;79;21360;-54
2021/08/19 02:37:02;;;;;;;26.50;17.67;;;;;;;19.19;91.40;99958.41;1775161;79;21198;-54
2021/08/19 02:40:08;;;;;;;18.65;16.65;;;;;;;19.13;91.31;99951.58;1767629;80;21191;-54
2021/08/19 02:43:14;;;;;;;17.45;15.63;;;;;;;19.06;91.40;99945.30;1766601;80;21336;-53
2021/08/19 02:46:20;;;;;;;22.30;17.65;;;;;;;19.00;91.56;99950.43;1775091;79;21241;-54
2021/08/19 02:49:27;;;;;;;20.92;16.30;;;;;;;18.96;91.72;99948.67;1776516;80;21427;-54
2021/08/19 02:52:33;;;;;;;19.35;16.07;;;;;;;18.93;91.92;99958.86;1770809;81;21176;-56
2021/08/19 02:55:40;;;;;;;21.65;16.42;;;;;;;18.90;92.07;99974.60;1776790;80;21371;-56
2021/08/19 02:58:45;;;;;;;18.15;16.23;;;;;;;18.88;92.13;99979.57;1768645;81;21730;-54
2021/08/19 03:01:51;;;;;;;21.00;16.93;;;;;;;18.86;92.39;99965.63;1768184;80;21410;-57
2021/08/19 03:04:58;;;;;;;23.75;17.02;;;;;;;18.84;92.42;99964.47;1767251;80;21364;-54
2021/08/19 03:08:04;;;;;;;19.73;17.25;;;;;;;18.84;92.72;99962.23;1766669;80;21792;-54
2021/08/19 03:11:10;;;;;;;23.80;17.60;;;;;;;18.82;92.76;99969.97;1770109;80;21182;-57
2021/08/19 03:14:17;;;;;;;20.80;17.17;;;;;;;18.82;92.90;99985.23;1761118;81;21359;-54
2021/08/19 03:17:24;;;;;;;19.73;15.88;;;;;;;18.83;93.07;99990.53;1769157;81;21217;-55
2021/08/19 03:20:30;;;;;;;21.33;16.97;;;;;;;18.86;93.15;99991.44;1769195;81;21217;-56
2021/08/19 03:23:36;;;;;;;25.95;18.20;;;;;;;18.89;93.16;99992.34;1769274;81;21249;-53
2021/08/19 03:26:43;;;;;;;20.17;16.93;;;;;;;18.92;92.97;99988.23;1774318;81;22142;-54
2021/08/19 03:29:48;;;;;;;22.17;17.52;;;;;;;18.91;92.82;99983.78;1712549;83;21605;-53
2021/08/19 03:32:54;;;;;;;24.47;17.07;;;;;;;18.88;92.75;99986.50;1723380;83;21288;-55
2021/08/19 03:36:00;;;;;;;21.75;17.15;;;;;;;18.88;92.73;99998.98;1727074;81;21194;-54
2021/08/19 03:39:07;;;;;;;20.35;16.93;;;;;;;18.86;92.83;100003.06;1704777;83;21284;-55
2021/08/19 03:42:13;;;;;;;20.65;17.62;;;;;;;18.89;93.08;100012.30;1754782;81;21438;-53
2021/08/19 03:45:19;;;;;;;22.80;17.48;;;;;;;18.95;93.30;100014.11;1743306;82;21765;-55
2021/08/19 03:48:26;;;;;;;23.70;17.55;;;;;;;19.04;93.25;100021.84;1704252;82;21180;-55
2021/08/19 03:51:31;;;;;;;22.60;16.82;;;;;;;19.11;93.18;100031.44;1774868;81;21206;-55
2021/08/19 03:54:38;;;;;;;20.82;17.15;;;;;;;19.18;92.87;100028.88;1747166;81;21232;-55
2021/08/19 03:57:45;;;;;;;20.05;16.65;;;;;;;19.24;92.64;100029.30;1775675;80;21193;-53
2021/08/19 04:00:51;;;;;;;21.42;16.85;;;;;;;19.27;92.31;100032.98;1760820;81;21230;-53
2021/08/19 04:03:57;;;;;;;26.05;19.17;;;;;;;19.26;91.95;100033.22;1775295;80;21221;-53
2021/08/19 04:07:02;;;;;;;23.00;18.55;;;;;;;19.22;91.84;100038.94;1764411;81;21840;-54
2021/08/19 04:10:07;;;;;;;20.52;17.37;;;;;;;19.17;91.88;100029.12;1766487;80;21323;-53
2021/08/19 04:13:14;;;;;;;21.17;18.50;;;;;;;19.17;91.96;100034.11;1775837;80;21205;-55
2021/08/19 04:16:20;;;;;;;23.30;18.20;;;;;;;19.13;91.87;100045.40;1767434;81;21603;-54
2021/08/19 04:19:28;;;;;;;22.02;18.25;;;;;;;19.14;92.13;100050.39;1775932;80;21201;-54
2021/08/19 04:22:37;;;;;;;22.80;18.48;;;;;;;19.15;92.15;100051.53;1767020;81;21189;-55
2021/08/19 04:25:44;;;;;;;27.48;18.52;;;;;;;19.18;92.23;100058.02;1767306;80;21228;-54
2021/08/19 04:28:51;;;;;;;22.75;19.15;;;;;;;19.19;92.18;100054.15;1766620;80;21228;-53
2021/08/19 04:31:59;;;;;;;28.15;19.32;;;;;;;19.22;92.19;100050.89;1748706;80;21728;-56
2021/08/19 04:35:07;;;;;;;23.42;19.52;;;;;;;19.24;92.25;100054.28;1733937;81;21350;-54
2021/08/19 04:38:12;;;;;;;22.70;18.75;;;;;;;19.29;92.50;100060.53;1746037;81;21393;-53
2021/08/19 04:41:18;;;;;;;23.80;19.40;;;;;;;19.34;92.52;100053.16;1733379;82;21840;-56
2021/08/19 04:44:27;;;;;;;26.45;20.25;;;;;;;19.39;92.56;100053.84;1733341;82;21363;-54
2021/08/19 04:47:32;;;;;;;26.25;20.75;;;;;;;19.46;92.48;100056.48;1744376;80;21399;-54
2021/08/19 04:50:39;;;;;;;24.05;19.75;;;;;;;19.53;92.32;100062.23;1766614;80;21896;-55
2021/08/19 04:53:47;;;;;;;24.25;19.87;;;;;;;19.58;92.03;100054.03;1765977;80;21770;-56
2021/08/19 04:56:52;;;;;;;24.32;20.43;;;;;;;19.64;91.83;100053.05;1766072;81;21454;-55
2021/08/19 04:59:57;;;;;;;23.50;19.90;;;;;;;19.69;91.63;100050.94;1768149;80;21442;-52
2021/08/19 05:03:03;;;;;;;24.52;19.75;;;;;;;19.72;91.42;100042.11;1767830;80;21395;-53
2021/08/19 05:06:09;;;;;;;25.50;20.43;;;;;;;19.84;91.47;100038.76;1766996;80;21213;-54
2021/08/19 05:09:19;;;;;;;24.15;19.85;;;;;;;19.95;91.03;100040.67;1766737;80;21272;-56
2021/08/19 05:12:28;;;;;;;25.23;20.27;;;;;;;20.00;90.54;100040.79;1767586;80;21834;-56
2021/08/19 05:15:36;;;;;;;25.45;19.65;;;;;;;20.04;90.21;100046.17;1765780;80;21375;-56
2021/08/19 05:18:46;;;;;;;27.52;21.27;;;;;;;20.07;89.91;100051.23;1766840;81;21182;-57
2021/08/19 05:21:54;;;;;;;24.02;19.95;;;;;;;20.12;89.76;100035.50;1767460;80;21249;-49
2021/08/19 05:25:01;;;;;;;24.35;19.70;;;;;;;20.14;89.28;100032.50;1763635;80;21252;-49
2021/08/19 05:28:12;;;;;;;23.77;19.67;;;;;;;20.15;89.21;100030.04;1736383;81;21217;-51
2021/08/19 05:31:17;;;;;;;22.70;19.20;;;;;;;20.25;89.14;100024.13;1715825;82;21596;-49
2021/08/19 05:34:22;;;;;;;22.65;19.15;;;;;;;20.34;88.44;100029.59;1740587;80;21710;-49
2021/08/19 05:37:30;;;;;;;20.85;18.27;;;;;;;20.37;87.62;100031.05;1753748;79;21362;-50
2021/08/19 05:40:38;;;;;;;26.05;19.62;;;;;;;20.38;87.31;100027.16;1767081;80;21382;-49
2021/08/19 05:43:46;;;;;;;21.48;18.50;;;;;;;20.38;87.25;100033.58;1747360;80;21358;-52
2021/08/19 05:46:56;;;;;;;22.67;17.62;;;;;;;20.40;87.06;100040.28;1767865;80;21180;-50
2021/08/19 05:50:10;;;;;;;23.42;19.20;;;;;;;20.40;87.05;100036.11;1790071;79;21173;-50
2021/08/19 05:53:13;;;;;;;22.55;19.17;;;;;;;20.43;87.17;100039.78;1798483;80;21177;-49
2021/08/19 05:56:22;;;;;;;28.00;19.85;;;;;;;20.47;87.36;100043.20;1766655;81;21217;-49
2021/08/19 05:59:27;;;;;;;22.45;18.77;;;;;;;20.48;86.94;100031.55;1768113;80;21260;-50
2021/08/19 06:02:32;;;;;;;24.05;18.73;;;;;;;20.51;87.00;100038.00;1767614;80;21450;-49
2021/08/19 06:05:38;;;;;;;21.10;18.82;;;;;;;20.53;86.43;100035.82;1766178;81;21869;-55
2021/08/19 06:08:44;;;;;;;22.30;19.80;;;;;;;20.52;86.37;100036.89;1765981;81;21434;-54
2021/08/19 06:11:54;;;;;;;23.87;19.95;;;;;;;20.56;86.31;100037.56;1765084;80;21766;-57
2021/08/19 06:14:59;;;;;;;23.00;19.35;;;;;;;20.59;86.19;100047.34;1764901;81;21873;-52
2021/08/19 06:18:05;;;;;;;22.35;18.27;;;;;;;20.64;85.78;100039.09;1749851;81;21286;-50
2021/08/19 06:21:15;;;;;;;26.05;17.98;;;;;;;20.65;85.04;100032.42;1731236;82;21821;-49
2021/08/19 06:24:22;;;;;;;22.50;18.40;;;;;;;20.69;84.42;100035.02;1793201;78;21687;-51
2021/08/19 06:27:27;;;;;;;22.73;18.48;;;;;;;20.74;84.44;100036.48;1790463;79;21192;-51
2021/08/19 06:30:32;;;;;;;24.07;18.70;;;;;;;20.83;84.26;100025.26;1786772;79;21196;-52
2021/08/19 06:33:38;;;;;;;21.45;17.98;;;;;;;20.92;84.01;100034.02;1763832;81;21267;-53
2021/08/19 06:36:47;;;;;;;21.68;17.62;;;;;;;21.05;83.65;100031.80;1714291;82;21386;-51
2021/08/19 06:39:53;;;;;;;22.58;18.55;;;;;;;21.11;83.21;100033.57;1731959;82;21243;-53
2021/08/19 06:43:00;;;;;;;22.02;19.30;;;;;;;21.13;82.83;100030.00;1798172;79;21212;-49
2021/08/19 06:46:07;;;;;;;24.23;20.32;;;;;;;21.13;82.82;100039.73;1768745;81;21347;-54
2021/08/19 06:49:12;;;;;;;25.32;19.73;;;;;;;21.12;82.47;100051.95;1765513;80;21355;-52
2021/08/19 06:52:18;;;;;;;26.97;20.00;;;;;;;21.07;82.60;100049.11;1767366;80;21252;-53
2021/08/19 06:55:23;;;;;;;21.90;19.17;;;;;;;21.06;82.67;100047.40;1736476;82;21205;-53
2021/08/19 06:58:30;;;;;;;24.37;19.48;;;;;;;21.04;82.67;100055.15;1727117;81;21721;-53
2021/08/19 07:01:37;;;;;;;22.48;19.25;;;;;;;21.06;82.53;100052.97;1704031;83;21225;-54
2021/08/19 07:04:43;;;;;;;23.75;19.52;;;;;;;21.09;82.65;100056.64;1715403;83;21371;-54
2021/08/19 07:07:48;;;;;;;24.80;19.02;;;;;;;21.18;82.52;100052.36;1764562;81;21200;-51
2021/08/19 07:10:53;;;;;;;24.02;18.40;;;;;;;21.29;82.36;100066.75;1767477;80;21363;-52
2021/08/19 07:13:58;;;;;;;21.33;17.80;;;;;;;21.35;81.66;100062.09;1766971;80;21220;-53
2021/08/19 07:17:03;;;;;;;21.85;18.07;;;;;;;21.42;81.32;100066.95;1766394;80;21884;-53
2021/08/19 07:20:12;;;;;;;22.27;18.67;;;;;;;21.49;80.79;100073.17;1717405;82;21213;-52
2021/08/19 07:23:18;;;;;;;21.85;18.05;;;;;;;21.51;80.27;100074.63;1754554;81;21296;-53
2021/08/19 07:26:24;;;;;;;20.08;17.48;;;;;;;21.54;80.03;100078.84;1745835;82;21227;-52
2021/08/19 07:29:29;;;;;;;22.77;18.60;;;;;;;21.56;79.80;100077.50;1739990;81;21761;-53
2021/08/19 07:32:35;;;;;;;23.47;17.65;;;;;;;21.56;79.61;100076.11;1731053;81;21378;-55
2021/08/19 07:35:41;;;;;;;24.20;18.80;;;;;;;21.56;79.51;100079.44;1757683;81;21198;-52
2021/08/19 07:38:47;;;;;;;23.15;17.87;;;;;;;21.55;79.40;100079.97;1752539;81;21769;-55
2021/08/19 07:41:54;;;;;;;21.27;17.42;;;;;;;21.60;79.06;100084.77;1766790;80;21524;-52
2021/08/19 07:45:00;;;;;;;21.82;18.27;;;;;;;21.60;78.97;100077.27;1766730;80;21216;-54
2021/08/19 07:48:08;;;;;;;20.32;16.70;;;;;;;21.68;78.97;100076.84;1743572;80;21244;-50
2021/08/19 07:51:16;;;;;;;21.17;17.15;;;;;;;21.81;78.05;100076.52;1752181;80;21253;-51
2021/08/19 07:54:21;;;;;;;19.70;16.35;;;;;;;21.83;77.39;100071.55;1797236;79;21612;-54
2021/08/19 07:57:29;;;;;;;18.30;14.95;;;;;;;21.79;77.12;100084.28;1805497;77;21169;-52
2021/08/19 08:00:36;;;;;;;20.25;16.60;;;;;;;21.79;76.97;100073.68;1795627;79;21357;-54
2021/08/19 08:03:43;;;;;;;22.90;16.82;;;;;;;21.77;77.22;100066.97;1798640;78;21216;-52
2021/08/19 08:06:48;;;;;;;23.80;16.55;;;;;;;21.93;76.92;100068.03;1786222;79;21334;-53
2021/08/19 08:09:53;;;;;;;19.10;16.32;;;;;;;22.17;76.67;100061.97;1792549;78;21201;-53
2021/08/19 08:13:00;;;;;;;22.77;16.85;;;;;;;22.34;76.23;100071.69;1795432;79;21710;-51
2021/08/19 08:16:05;;;;;;;23.85;17.82;;;;;;;22.48;75.45;100050.66;1781029;80;21928;-52
2021/08/19 08:19:10;;;;;;;21.70;16.20;;;;;;;22.60;74.41;100058.89;1802693;78;21212;-53
2021/08/19 08:22:15;;;;;;;19.90;16.87;;;;;;;22.71;73.95;100056.50;1794108;78;21232;-53
2021/08/19 08:25:22;;;;;;;20.92;15.53;;;;;;;22.81;73.27;100066.39;1767333;81;21244;-52
2021/08/19 08:28:35;;;;;;;19.30;15.60;;;;;;;22.76;72.71;100060.74;1728923;81;21865;-51
2021/08/19 08:31:41;;;;;;;17.57;15.35;;;;;;;22.67;72.46;100058.14;1734744;82;21269;-54
2021/08/19 08:34:48;;;;;;;17.30;15.50;;;;;;;22.59;72.95;100050.23;1756408;80;21201;-52
2021/08/19 08:37:55;;;;;;;19.15;15.20;;;;;;;22.67;73.15;100043.64;1757397;81;21777;-54
2021/08/19 08:41:01;;;;;;;16.25;14.28;;;;;;;22.78;72.80;100041.25;1739202;79;21714;-54
2021/08/19 08:44:06;;;;;;;16.65;13.72;;;;;;;22.79;72.51;100037.34;1757598;81;21837;-56
2021/08/19 08:47:13;;;;;;;15.78;13.50;;;;;;;22.80;72.26;100028.42;1725602;83;21193;-52
2021/08/19 08:50:19;;;;;;;16.42;13.38;;;;;;;22.77;72.38;100039.55;1763444;81;21217;-53
2021/08/19 08:53:27;;;;;;;14.68;13.18;;;;;;;22.80;72.65;100032.61;1716941;80;21986;-50
2021/08/19 08:56:35;;;;;;;15.75;13.00;;;;;;;22.89;72.72;100029.63;1721503;82;21251;-48
2021/08/19 08:59:41;;;;;;;17.30;13.58;;;;;;;23.04;72.26;100031.17;1750030;81;21212;-48
2021/08/19 09:02:49;;;;;;;17.75;13.58;;;;;;;23.10;72.00;100028.72;1725273;82;21792;-50
2021/08/19 09:05:59;;;;;;;16.23;13.18;;;;;;;23.07;71.38;100018.08;1741820;81;21251;-47
2021/08/19 09:09:05;;;;;;;14.65;13.15;;;;;;;23.12;71.74;100023.71;1753965;79;22163;-49
2021/08/19 09:12:14;;;;;;;15.23;12.93;;;;;;;23.08;70.99;100036.51;1786510;78;21157;-48
2021/08/19 09:15:23;;;;;;;14.65;12.88;;;;;;;22.91;71.31;100028.81;1780945;79;21208;-48
2021/08/19 09:18:41;;;;;;;15.98;12.75;;;;;;;22.91;71.83;100026.02;1804361;78;21800;-49
2021/08/19 09:21:56;;;;;;;14.83;13.10;;;;;;;22.99;71.72;100025.54;1777463;79;21216;-49
2021/08/19 09:25:02;;;;;;;16.37;13.48;;;;;;;23.14;71.62;100020.08;1784478;79;21287;-48
2021/08/19 09:28:30;;;;;;;15.68;12.70;;;;;;;23.30;71.06;100019.13;1777648;79;21809;-50
2021/08/19 09:31:35;;;;;;;14.03;12.53;;;;;;;23.40;70.75;100026.20;1778146;79;21324;-48
2021/08/19 09:34:41;;;;;;;18.80;12.07;;;;;;;23.45;70.16;100024.84;1777844;79;21687;-47
2021/08/19 09:37:47;;;;;;;17.80;12.07;;;;;;;23.59;69.72;100016.28;1794799;79;21844;-48
2021/08/19 09:41:22;;;;;;;15.83;12.35;;;;;;;23.67;69.25;100014.38;1757299;79;22007;-47
2021/08/19 09:44:37;;;;;;;15.70;12.93;;;;;;;23.72;68.92;100014.41;1746955;82;21378;-48
2021/08/19 09:47:45;;;;;;;15.93;13.05;;;;;;;23.75;68.66;100016.66;1752629;81;21185;-47
2021/08/19 09:50:51;;;;;;;14.65;11.97;;;;;;;23.80;67.96;100009.67;1780521;80;21817;-51
2021/08/19 09:54:04;;;;;;;13.80;12.07;;;;;;;23.83;67.83;100020.89;1783692;79;21457;-48
2021/08/19 09:57:16;;;;;;;16.15;12.88;;;;;;;23.90;68.12;100011.14;1806270;79;21235;-48
2021/08/19 10:00:45;;;;;;;18.92;12.85;;;;;;;23.97;67.62;100024.38;1777558;79;21189;-48
2021/08/19 10:03:52;;;;;;;14.25;11.20;;;;;;;23.98;67.17;100029.38;1803325;79;21347;-52
2021/08/19 10:07:00;;;;;;;13.40;11.97;;;;;;;24.01;67.25;100020.45;1802922;79;21374;-51
2021/08/19 10:10:07;;;;;;;15.05;11.60;;;;;;;24.02;67.59;100025.80;1802501;79;21169;-53
2021/08/19 10:13:15;;;;;;;16.02;12.10;;;;;;;24.11;67.36;100010.72;1787547;78;21691;-51
2021/08/19 10:16:22;;;;;;;15.65;12.18;;;;;;;24.22;67.37;100006.30;1736945;80;21199;-52
2021/08/19 10:19:42;;;;;;;13.60;11.50;;;;;;;24.35;67.33;100005.80;1779989;79;21204;-50
2021/08/19 10:22:47;;;;;;;15.23;11.50;;;;;;;24.47;66.88;100017.58;1790680;80;21339;-50
2021/08/19 10:25:53;;;;;;;12.33;10.63;;;;;;;24.53;66.96;100009.47;1770924;80;21911;-48
2021/08/19 10:29:04;;;;;;;14.15;11.05;;;;;;;24.63;66.85;100015.10;1723200;81;21839;-48
2021/08/19 10:32:12;;;;;;;13.83;11.08;;;;;;;24.73;66.66;100010.12;1761641;81;21745;-53
2021/08/19 10:35:22;;;;;;;14.85;10.50;;;;;;;24.83;66.00;100016.56;1728035;81;21208;-48
2021/08/19 10:38:32;;;;;;;13.25;10.63;;;;;;;24.97;65.47;100013.50;1777738;79;21695;-49
2021/08/19 10:41:44;;;;;;;14.07;11.55;;;;;;;25.13;64.99;100009.32;1789169;79;21138;-53
2021/08/19 10:44:51;;;;;;;13.18;9.88;;;;;;;25.30;64.30;100016.33;1782643;79;21375;-54
2021/08/19 10:47:56;;;;;;;12.33;10.15;;;;;;;25.34;64.03;100010.45;1793395;79;21214;-55
2021/08/19 10:51:19;;;;;;;12.60;10.35;;;;;;;25.45;63.94;99998.11;1762149;81;21896;-53
2021/08/19 10:54:41;;;;;;;13.00;10.85;;;;;;;25.55;63.04;100007.92;1765095;80;21401;-53
2021/08/19 10:58:01;;;;;;;12.30;9.95;;;;;;;25.64;62.23;99997.80;1755742;80;21758;-54
2021/08/19 11:01:07;;;;;;;12.25;9.35;;;;;;;25.68;62.16;100008.75;1735585;82;21204;-54
2021/08/19 11:04:12;;;;;;;13.50;10.00;;;;;;;25.72;61.14;99997.23;1768037;79;21344;-54
2021/08/19 11:07:18;;;;;;;13.40;10.32;;;;;;;25.77;60.29;99992.16;1802293;79;21172;-53
2021/08/19 11:10:36;;;;;;;13.35;9.58;;;;;;;25.85;60.60;99991.03;1754754;81;21542;-54
2021/08/19 11:13:45;;;;;;;13.88;10.10;;;;;;;25.97;60.34;99985.92;1778009;79;21170;-54
2021/08/19 11:16:53;;;;;;;13.22;8.93;;;;;;;26.09;59.57;99990.70;1790598;79;21181;-53
2021/08/19 11:19:58;;;;;;;11.93;10.23;;;;;;;26.18;59.51;99990.92;1760421;80;21272;-54
2021/08/19 11:23:18;;;;;;;12.50;9.28;;;;;;;26.24;59.40;99989.80;1773142;79;21180;-51
2021/08/19 11:26:26;;;;;;;13.15;9.63;;;;;;;26.29;59.34;99992.59;1789522;79;21161;-51
2021/08/19 11:29:39;;;;;;;12.93;9.43;;;;;;;26.35;58.54;99990.03;1798851;79;21165;-49
2021/08/19 11:32:48;;;;;;;10.80;9.03;;;;;;;26.48;59.23;99991.63;1790214;79;21689;-50
2021/08/19 11:35:57;;;;;;;11.55;9.10;;;;;;;26.65;59.18;99989.89;1796132;79;21334;-50
2021/08/19 11:39:15;;;;;;;9.93;8.63;;;;;;;26.85;58.13;99982.72;1805285;79;21192;-51
2021/08/19 11:42:21;;;;;;;12.35;8.75;;;;;;;26.88;57.60;99986.34;1777903;79;21269;-52
2021/08/19 11:45:31;;;;;;;10.90;8.78;;;;;;;26.90;56.37;99982.69;1758198;80;21320;-53
2021/08/19 11:48:38;;;;;;;10.48;8.90;;;;;;;26.88;56.43;99977.92;1769514;80;21240;-54
2021/08/19 11:51:47;;;;;;;10.75;7.90;;;;;;;26.87;56.53;99970.63;1767507;80;21188;-55
2021/08/19 11:54:57;;;;;;;9.15;7.65;;;;;;;26.84;56.61;99990.88;1798345;78;21239;-52
2021/08/19 11:58:02;;;;;;;10.35;8.05;;;;;;;26.74;56.00;99982.52;1734535;81;21903;-53
2021/08/19 12:01:14;;;;;;;8.83;7.45;;;;;;;26.61;55.88;99981.72;1776250;80;21263;-48
2021/08/19 12:04:20;;;;;;;10.32;8.30;;;;;;;26.52;55.85;99983.47;1784448;80;21559;-50
2021/08/19 12:07:27;;;;;;;10.50;8.85;;;;;;;26.40;55.96;99980.19;1776715;80;21165;-51
2021/08/19 12:10:34;;;;;;;7.92;7.05;;;;;;;26.37;56.56;99991.95;1793598;80;21134;-48
2021/08/19 12:13:44;;;;;;;10.58;7.70;;;;;;;26.38;56.85;99989.45;1793534;80;21841;-49
2021/08/19 12:16:57;;;;;;;11.88;8.03;;;;;;;26.42;57.06;99994.75;1772889;80;21781;-52
2021/08/19 12:20:24;;;;;;;9.30;7.70;;;;;;;26.47;57.32;100004.55;1774455;81;21804;-50
2021/08/19 12:23:32;;;;;;;12.53;7.87;;;;;;;26.50;56.57;100010.17;1752619;81;21208;-50
2021/08/19 12:26:37;;;;;;;9.95;7.65;;;;;;;26.55;56.81;100020.80;1793083;80;21347;-51
2021/08/19 12:29:47;;;;;;;8.38;7.50;;;;;;;26.63;56.80;100018.79;1794428;78;21193;-49
2021/08/19 12:32:52;;;;;;;10.48;7.72;;;;;;;26.71;56.68;100012.59;1794421;80;21201;-49
2021/08/19 12:36:02;;;;;;;8.03;6.45;;;;;;;26.78;56.49;100005.25;1792794;80;21205;-50
2021/08/19 12:39:27;;;;;;;7.83;5.67;;;;;;;26.95;56.65;100002.87;1792221;80;21288;-51
2021/08/19 12:42:42;;;;;;;8.30;6.22;;;;;;;27.17;55.21;100006.08;1791072;80;21170;-53
2021/08/19 12:45:50;;;;;;;8.03;5.40;;;;;;;27.19;54.24;99983.59;1765713;80;21165;-51
2021/08/19 12:48:58;;;;;;;8.78;6.45;;;;;;;27.22;54.18;99988.62;1698996;83;21229;-50
2021/08/19 12:52:29;;;;;;;7.70;5.55;;;;;;;27.28;54.20;99969.19;1719991;82;21736;-50
2021/08/19 12:55:36;;;;;;;10.30;6.12;;;;;;;27.29;53.58;99962.42;1729024;81;21240;-52
2021/08/19 12:58:43;;;;;;;6.80;4.58;;;;;;;27.21;53.90;99960.21;1728141;82;21201;-51
2021/08/19 13:01:48;;;;;;;13.13;4.95;;;;;;;27.14;53.61;99963.95;1756997;81;21209;-51
2021/08/19 13:04:54;;;;;;;7.45;4.00;;;;;;;26.86;53.55;99963.31;1768427;79;21220;-50
2021/08/19 13:07:59;;;;;;;7.08;4.10;;;;;;;26.58;54.47;99959.84;1764969;81;22129;-50
2021/08/19 13:11:06;;;;;;;8.15;3.85;;;;;;;26.32;54.50;99974.58;1785744;79;21149;-49
2021/08/19 13:14:13;;;;;;;8.80;3.92;;;;;;;26.08;55.03;99972.75;1725592;82;21774;-48
2021/08/19 13:17:19;;;;;;;10.88;3.98;;;;;;;25.87;55.20;99966.34;1708236;82;21243;-47
2021/08/19 13:20:25;;;;;;;11.22;4.53;;;;;;;25.71;55.53;99956.84;1801775;79;21235;-49
2021/08/19 13:23:33;;;;;;;6.60;3.87;;;;;;;25.62;55.96;99961.38;1773372;79;21774;-49
2021/08/19 13:26:40;;;;;;;11.48;5.10;;;;;;;25.54;56.25;99967.00;1767040;79;21229;-49
2021/08/19 13:29:59;;;;;;;7.20;4.22;;;;;;;25.46;56.44;99948.51;1765065;80;21411;-49
2021/08/19 13:33:11;;;;;;;6.28;3.80;;;;;;;25.39;56.34;99966.16;1744391;80;21367;-51
2021/08/19 13:36:21;;;;;;;7.53;4.05;;;;;;;25.32;56.93;99962.25;1754821;80;21275;-49
2021/08/19 13:39:36;;;;;;;6.05;4.22;;;;;;;25.31;56.96;99945.13;1753068;79;22152;-50
2021/08/19 13:42:48;;;;;;;6.30;3.85;;;;;;;25.31;56.79;99948.52;1750848;80;21379;-52
2021/08/19 13:45:54;;;;;;;8.83;4.22;;;;;;;25.26;56.97;99941.52;1767522;79;21177;-49
2021/08/19 13:48:59;;;;;;;7.60;4.40;;;;;;;25.31;57.14;99927.50;1766069;81;21256;-50
2021/08/19 13:52:05;;;;;;;7.28;3.90;;;;;;;25.32;57.01;99926.36;1759216;81;21396;-49
2021/08/19 13:55:12;;;;;;;7.65;3.72;;;;;;;25.36;56.56;99925.54;1762015;79;21284;-49
2021/08/19 13:58:20;;;;;;;8.50;3.83;;;;;;;25.35;56.29;99923.02;1749492;80;21197;-50
2021/08/19 14:01:27;;;;;;;7.65;4.42;;;;;;;25.31;56.02;99928.90;1734127;82;21192;-47
2021/08/19 14:04:34;;;;;;;7.50;4.83;;;;;;;25.28;56.14;99917.67;1733608;81;21702;-50
2021/08/19 14:07:39;;;;;;;8.88;4.35;;;;;;;25.28;56.31;99905.62;1701689;83;21204;-48
2021/08/19 14:10:46;;;;;;;6.50;4.22;;;;;;;25.29;55.84;99903.11;1701896;83;21332;-49
2021/08/19 14:13:52;;;;;;;7.70;4.30;;;;;;;25.35;55.71;99907.06;1714336;82;21180;-48
2021/08/19 14:16:58;;;;;;;11.43;4.35;;;;;;;25.49;55.49;99893.27;1705773;84;21193;-50
2021/08/19 14:20:03;;;;;;;9.25;4.40;;;;;;;25.61;55.21;99903.63;1705790;82;21773;-49
2021/08/19 14:23:10;;;;;;;5.78;4.20;;;;;;;25.66;55.16;99893.77;1706547;82;21250;-50